Tropical Cyclones
[Index]
Main Index Home Page Stock Weather Photos Extreme Storms Discussion Storm News and Storm Chasing Reports Tropical Cyclones / Hurricanes / Typhoons Weather Data and Links Wild Fires / Bushfires Weather Observation Techniques Weather Picture Catalogue Tornado Pictures and Reports Stock Video Footage and DVDs for sale
Season 1984-1985 Tropical Cyclone KIRSTY Track Map
Season 1984-1985 Summaries: [BoM-AU] [JTWC-AU] [JTWC-SIO] [JTWC-SPAC] [JTWC-SH]
<<- Previous TC | JTWC 1984-1985 Season | Next TC ->>

click for intensity scale information  Lat/long Grid: Show Hide

 Date Labels: Show Hide

Joint Typhoon Warning Centre Cyclone Data

Name: KIRSTY

06 Mar 1985 12:00 UTC to 14 Mar 1985 12:00 UTC

    date/time    lat    long     hPa   cat  kts
1985-03-06 12   11.4    93.5                  30          
1985-03-06 18   11.7    92.6            1     40          
1985-03-07 00   12.0    91.8            1     45          
1985-03-07 06   12.4    91.0            1     50          
1985-03-07 12   12.8    90.2            2     55          
1985-03-07 18   13.2    89.4            2     65          
1985-03-08 00   13.5    88.6            3     75          
1985-03-08 06   13.6    87.8            3     85          
1985-03-08 12   13.6    86.9            3     95          
1985-03-08 18   13.8    86.1            4    100          
1985-03-09 00   14.2    85.6            4    105          
1985-03-09 06   14.7    85.2            4    105          
1985-03-09 12   15.2    84.9            4    110          
1985-03-09 18   15.9    84.6            4    110          
1985-03-10 00   16.5    84.3            4    115          
1985-03-10 06   17.1    84.2            4    115          
1985-03-10 12   17.7    84.2            4    115          
1985-03-10 18   18.3    84.3            4    110          
1985-03-11 00   18.9    84.5            4    105          
1985-03-11 06   19.3    84.7            4    100          
1985-03-11 12   19.7    85.0            3     90          
1985-03-11 18   20.2    85.3            3     80          
1985-03-12 00   20.6    85.6            3     75          
1985-03-12 06   21.0    85.9            2     70          
1985-03-12 12   21.4    86.2            2     65          
1985-03-12 18   21.8    86.5            2     60          
1985-03-13 00   22.3    86.8            2     55          
1985-03-13 06   22.8    87.2            1     50          
1985-03-13 12   23.4    87.8            1     50          
1985-03-13 18   23.8    88.4            1     50          
1985-03-14 00   24.3    89.1            1     45          
1985-03-14 06   25.0    90.2            1     45          
1985-03-14 12   25.9    91.7            1     40          
Winds are 1-min average.

Tropical cyclone tracks developed by Michael Bath using data from the Joint Typhoon Warning Centre Best Tracks and Google Maps.


[Australian Severe Weather index] [Copyright Notice] [Email Contacts] [Search This Site] [Privacy Policy]
Document: tropical_cyclone_kirsty.htm Updated: 18 September 2016